sensor_id;sensor_type;location;lat;lon;timestamp;P1;durP1;ratioP1;P2;durP2;ratioP2
16965;SDS011;8599;47.852;12.070;2023-09-19T00:00:52;1.50;;;1.07;;
16965;SDS011;8599;47.852;12.070;2023-09-19T00:03:22;4.30;;;0.90;;
16965;SDS011;8599;47.852;12.070;2023-09-19T00:05:51;0.80;;;0.80;;
16965;SDS011;8599;47.852;12.070;2023-09-19T00:08:18;1.80;;;1.17;;
16965;SDS011;8599;47.852;12.070;2023-09-19T00:10:48;2.93;;;1.10;;
16965;SDS011;8599;47.852;12.070;2023-09-19T00:13:15;0.60;;;0.60;;
16965;SDS011;8599;47.852;12.070;2023-09-19T00:15:42;4.30;;;1.20;;
16965;SDS011;8599;47.852;12.070;2023-09-19T00:18:13;1.50;;;0.87;;
16965;SDS011;8599;47.852;12.070;2023-09-19T00:20:42;2.87;;;1.13;;
16965;SDS011;8599;47.852;12.070;2023-09-19T00:23:14;1.30;;;1.00;;
16965;SDS011;8599;47.852;12.070;2023-09-19T00:25:41;1.57;;;1.10;;
16965;SDS011;8599;47.852;12.070;2023-09-19T00:28:08;0.80;;;0.77;;
16965;SDS011;8599;47.852;12.070;2023-09-19T00:30:36;2.37;;;1.30;;
16965;SDS011;8599;47.852;12.070;2023-09-19T00:33:04;1.80;;;1.00;;
16965;SDS011;8599;47.852;12.070;2023-09-19T00:35:32;1.07;;;0.70;;
16965;SDS011;8599;47.852;12.070;2023-09-19T00:37:59;1.10;;;1.00;;
16965;SDS011;8599;47.852;12.070;2023-09-19T00:40:28;2.70;;;0.90;;
16965;SDS011;8599;47.852;12.070;2023-09-19T00:42:57;2.10;;;0.80;;
16965;SDS011;8599;47.852;12.070;2023-09-19T00:45:25;3.13;;;1.10;;
16965;SDS011;8599;47.852;12.070;2023-09-19T00:47:53;0.83;;;0.80;;
16965;SDS011;8599;47.852;12.070;2023-09-19T00:50:22;1.53;;;1.10;;
16965;SDS011;8599;47.852;12.070;2023-09-19T00:52:50;4.63;;;1.87;;
16965;SDS011;8599;47.852;12.070;2023-09-19T00:55:21;2.90;;;0.87;;
16965;SDS011;8599;47.852;12.070;2023-09-19T00:57:50;1.27;;;0.90;;
16965;SDS011;8599;47.852;12.070;2023-09-19T01:00:19;2.20;;;1.07;;
16965;SDS011;8599;47.852;12.070;2023-09-19T01:02:46;1.63;;;0.93;;
16965;SDS011;8599;47.852;12.070;2023-09-19T01:05:13;1.30;;;1.10;;
16965;SDS011;8599;47.852;12.070;2023-09-19T01:07:40;1.10;;;1.00;;
16965;SDS011;8599;47.852;12.070;2023-09-19T01:10:08;1.17;;;1.00;;
16965;SDS011;8599;47.852;12.070;2023-09-19T01:12:41;2.13;;;0.90;;
16965;SDS011;8599;47.852;12.070;2023-09-19T01:15:17;1.93;;;1.50;;
16965;SDS011;8599;47.852;12.070;2023-09-19T01:17:53;1.17;;;1.07;;
16965;SDS011;8599;47.852;12.070;2023-09-19T01:20:29;2.00;;;1.20;;
16965;SDS011;8599;47.852;12.070;2023-09-19T01:23:06;1.30;;;0.90;;
16965;SDS011;8599;47.852;12.070;2023-09-19T01:25:47;2.90;;;1.30;;
16965;SDS011;8599;47.852;12.070;2023-09-19T01:28:30;0.90;;;0.87;;
16965;SDS011;8599;47.852;12.070;2023-09-19T01:31:03;1.30;;;1.10;;
16965;SDS011;8599;47.852;12.070;2023-09-19T01:36:22;2.10;;;1.10;;
16965;SDS011;8599;47.852;12.070;2023-09-19T01:38:49;2.63;;;1.20;;
16965;SDS011;8599;47.852;12.070;2023-09-19T01:41:17;3.40;;;0.80;;
16965;SDS011;8599;47.852;12.070;2023-09-19T01:43:59;3.57;;;1.17;;
16965;SDS011;8599;47.852;12.070;2023-09-19T01:46:33;1.23;;;1.07;;
16965;SDS011;8599;47.852;12.070;2023-09-19T01:49:04;3.60;;;1.03;;
16965;SDS011;8599;47.852;12.070;2023-09-19T01:51:42;3.13;;;1.00;;
16965;SDS011;8599;47.852;12.070;2023-09-19T01:54:12;0.90;;;0.90;;
16965;SDS011;8599;47.852;12.070;2023-09-19T01:56:45;2.40;;;0.90;;
16965;SDS011;8599;47.852;12.070;2023-09-19T01:59:23;1.10;;;1.00;;
16965;SDS011;8599;47.852;12.070;2023-09-19T02:01:53;2.13;;;1.10;;
16965;SDS011;8599;47.852;12.070;2023-09-19T02:04:21;1.17;;;1.07;;
16965;SDS011;8599;47.852;12.070;2023-09-19T02:06:48;5.33;;;0.90;;
16965;SDS011;8599;47.852;12.070;2023-09-19T02:09:15;5.30;;;1.40;;
16965;SDS011;8599;47.852;12.070;2023-09-19T02:11:42;3.33;;;1.10;;
16965;SDS011;8599;47.852;12.070;2023-09-19T02:14:09;2.43;;;1.27;;
16965;SDS011;8599;47.852;12.070;2023-09-19T02:16:35;3.70;;;1.17;;
16965;SDS011;8599;47.852;12.070;2023-09-19T02:19:04;2.57;;;1.10;;
16965;SDS011;8599;47.852;12.070;2023-09-19T02:21:31;3.87;;;0.97;;
16965;SDS011;8599;47.852;12.070;2023-09-19T02:23:58;1.27;;;0.80;;
16965;SDS011;8599;47.852;12.070;2023-09-19T02:26:25;2.57;;;1.13;;
16965;SDS011;8599;47.852;12.070;2023-09-19T02:28:52;2.00;;;1.17;;
16965;SDS011;8599;47.852;12.070;2023-09-19T02:31:19;5.77;;;1.27;;
16965;SDS011;8599;47.852;12.070;2023-09-19T02:33:46;5.20;;;1.10;;
16965;SDS011;8599;47.852;12.070;2023-09-19T02:36:14;1.73;;;1.30;;
16965;SDS011;8599;47.852;12.070;2023-09-19T02:38:42;5.33;;;1.43;;
16965;SDS011;8599;47.852;12.070;2023-09-19T02:41:09;7.23;;;1.30;;
16965;SDS011;8599;47.852;12.070;2023-09-19T02:43:36;4.43;;;1.30;;
16965;SDS011;8599;47.852;12.070;2023-09-19T02:46:03;1.33;;;1.20;;
16965;SDS011;8599;47.852;12.070;2023-09-19T02:48:30;4.63;;;1.60;;
16965;SDS011;8599;47.852;12.070;2023-09-19T02:50:59;3.43;;;1.53;;
16965;SDS011;8599;47.852;12.070;2023-09-19T02:53:28;5.57;;;2.13;;
16965;SDS011;8599;47.852;12.070;2023-09-19T02:55:56;9.87;;;2.00;;
16965;SDS011;8599;47.852;12.070;2023-09-19T02:58:24;7.23;;;2.53;;
16965;SDS011;8599;47.852;12.070;2023-09-19T03:00:52;4.57;;;1.90;;
16965;SDS011;8599;47.852;12.070;2023-09-19T03:03:20;6.37;;;2.30;;
16965;SDS011;8599;47.852;12.070;2023-09-19T03:05:48;5.60;;;2.37;;
16965;SDS011;8599;47.852;12.070;2023-09-19T03:08:16;1.90;;;1.70;;
16965;SDS011;8599;47.852;12.070;2023-09-19T03:10:47;4.03;;;1.77;;
16965;SDS011;8599;47.852;12.070;2023-09-19T03:13:14;3.30;;;1.67;;
16965;SDS011;8599;47.852;12.070;2023-09-19T03:15:41;2.27;;;1.60;;
16965;SDS011;8599;47.852;12.070;2023-09-19T03:18:09;2.47;;;1.60;;
16965;SDS011;8599;47.852;12.070;2023-09-19T03:20:36;1.90;;;1.50;;
16965;SDS011;8599;47.852;12.070;2023-09-19T03:23:03;3.37;;;1.60;;
16965;SDS011;8599;47.852;12.070;2023-09-19T03:25:31;2.63;;;1.93;;
16965;SDS011;8599;47.852;12.070;2023-09-19T03:28:02;3.10;;;1.97;;
16965;SDS011;8599;47.852;12.070;2023-09-19T03:30:30;7.27;;;1.97;;
16965;SDS011;8599;47.852;12.070;2023-09-19T03:32:59;4.63;;;1.47;;
16965;SDS011;8599;47.852;12.070;2023-09-19T03:35:26;3.40;;;1.70;;
16965;SDS011;8599;47.852;12.070;2023-09-19T03:37:53;2.90;;;1.30;;
16965;SDS011;8599;47.852;12.070;2023-09-19T03:40:21;2.43;;;1.53;;
16965;SDS011;8599;47.852;12.070;2023-09-19T03:42:48;3.83;;;1.63;;
16965;SDS011;8599;47.852;12.070;2023-09-19T03:45:16;2.00;;;1.60;;
16965;SDS011;8599;47.852;12.070;2023-09-19T03:47:43;4.10;;;2.33;;
16965;SDS011;8599;47.852;12.070;2023-09-19T03:50:12;2.17;;;1.87;;
16965;SDS011;8599;47.852;12.070;2023-09-19T03:52:40;3.23;;;2.03;;
16965;SDS011;8599;47.852;12.070;2023-09-19T03:55:07;3.50;;;2.13;;
16965;SDS011;8599;47.852;12.070;2023-09-19T03:57:34;1.83;;;1.57;;
16965;SDS011;8599;47.852;12.070;2023-09-19T04:00:01;4.57;;;2.10;;
16965;SDS011;8599;47.852;12.070;2023-09-19T04:02:30;3.40;;;1.70;;
16965;SDS011;8599;47.852;12.070;2023-09-19T04:04:58;2.57;;;1.70;;
16965;SDS011;8599;47.852;12.070;2023-09-19T04:07:25;1.90;;;1.70;;
16965;SDS011;8599;47.852;12.070;2023-09-19T04:09:54;4.17;;;1.77;;
16965;SDS011;8599;47.852;12.070;2023-09-19T04:12:20;3.10;;;1.83;;
16965;SDS011;8599;47.852;12.070;2023-09-19T04:14:47;2.57;;;1.90;;
16965;SDS011;8599;47.852;12.070;2023-09-19T04:17:15;1.90;;;1.57;;
16965;SDS011;8599;47.852;12.070;2023-09-19T04:19:43;2.43;;;1.80;;
16965;SDS011;8599;47.852;12.070;2023-09-19T04:22:10;3.13;;;1.50;;
16965;SDS011;8599;47.852;12.070;2023-09-19T04:24:38;2.10;;;1.40;;
16965;SDS011;8599;47.852;12.070;2023-09-19T04:27:04;1.80;;;1.67;;
16965;SDS011;8599;47.852;12.070;2023-09-19T04:29:32;4.37;;;2.70;;
16965;SDS011;8599;47.852;12.070;2023-09-19T04:31:59;4.10;;;1.90;;
16965;SDS011;8599;47.852;12.070;2023-09-19T04:34:25;4.17;;;1.87;;
16965;SDS011;8599;47.852;12.070;2023-09-19T04:36:53;3.77;;;1.80;;
16965;SDS011;8599;47.852;12.070;2023-09-19T04:39:21;4.73;;;1.80;;
16965;SDS011;8599;47.852;12.070;2023-09-19T04:41:50;1.97;;;1.77;;
16965;SDS011;8599;47.852;12.070;2023-09-19T04:44:18;2.10;;;1.43;;
16965;SDS011;8599;47.852;12.070;2023-09-19T04:46:44;1.83;;;1.40;;
16965;SDS011;8599;47.852;12.070;2023-09-19T04:49:12;1.73;;;1.57;;
16965;SDS011;8599;47.852;12.070;2023-09-19T04:51:39;4.00;;;1.83;;
16965;SDS011;8599;47.852;12.070;2023-09-19T04:54:07;1.83;;;1.47;;
16965;SDS011;8599;47.852;12.070;2023-09-19T04:56:34;1.50;;;1.40;;
16965;SDS011;8599;47.852;12.070;2023-09-19T04:59:01;4.50;;;1.57;;
16965;SDS011;8599;47.852;12.070;2023-09-19T05:01:28;3.00;;;1.70;;
16965;SDS011;8599;47.852;12.070;2023-09-19T05:03:56;2.10;;;1.70;;
16965;SDS011;8599;47.852;12.070;2023-09-19T05:06:23;2.80;;;1.90;;
16965;SDS011;8599;47.852;12.070;2023-09-19T05:08:51;3.47;;;1.70;;
16965;SDS011;8599;47.852;12.070;2023-09-19T05:11:19;2.30;;;1.70;;
16965;SDS011;8599;47.852;12.070;2023-09-19T05:13:47;3.67;;;2.13;;
16965;SDS011;8599;47.852;12.070;2023-09-19T05:16:15;2.53;;;1.80;;
16965;SDS011;8599;47.852;12.070;2023-09-19T05:18:42;1.77;;;1.40;;
16965;SDS011;8599;47.852;12.070;2023-09-19T05:21:08;2.97;;;1.50;;
16965;SDS011;8599;47.852;12.070;2023-09-19T05:23:35;2.13;;;1.53;;
16965;SDS011;8599;47.852;12.070;2023-09-19T05:26:03;2.03;;;1.53;;
16965;SDS011;8599;47.852;12.070;2023-09-19T05:28:31;2.53;;;1.73;;
16965;SDS011;8599;47.852;12.070;2023-09-19T05:31:00;4.73;;;2.00;;
16965;SDS011;8599;47.852;12.070;2023-09-19T05:33:27;4.30;;;2.00;;
16965;SDS011;8599;47.852;12.070;2023-09-19T05:35:56;5.37;;;1.90;;
16965;SDS011;8599;47.852;12.070;2023-09-19T05:38:23;3.97;;;2.10;;
16965;SDS011;8599;47.852;12.070;2023-09-19T05:40:51;7.10;;;1.87;;
16965;SDS011;8599;47.852;12.070;2023-09-19T05:43:19;4.60;;;2.00;;
16965;SDS011;8599;47.852;12.070;2023-09-19T05:45:47;6.97;;;2.37;;
16965;SDS011;8599;47.852;12.070;2023-09-19T05:48:17;4.40;;;2.20;;
16965;SDS011;8599;47.852;12.070;2023-09-19T05:50:46;4.27;;;1.80;;
16965;SDS011;8599;47.852;12.070;2023-09-19T05:53:13;2.33;;;1.73;;
16965;SDS011;8599;47.852;12.070;2023-09-19T05:55:41;4.90;;;1.30;;
16965;SDS011;8599;47.852;12.070;2023-09-19T05:58:08;2.20;;;1.27;;
16965;SDS011;8599;47.852;12.070;2023-09-19T06:00:35;1.90;;;1.30;;
16965;SDS011;8599;47.852;12.070;2023-09-19T06:03:03;1.30;;;1.07;;
16965;SDS011;8599;47.852;12.070;2023-09-19T06:05:29;3.03;;;1.20;;
16965;SDS011;8599;47.852;12.070;2023-09-19T06:07:56;2.07;;;1.03;;
16965;SDS011;8599;47.852;12.070;2023-09-19T06:10:25;1.23;;;1.03;;
16965;SDS011;8599;47.852;12.070;2023-09-19T06:12:53;3.53;;;1.00;;
16965;SDS011;8599;47.852;12.070;2023-09-19T06:15:23;1.50;;;1.03;;
16965;SDS011;8599;47.852;12.070;2023-09-19T06:17:50;3.40;;;1.23;;
16965;SDS011;8599;47.852;12.070;2023-09-19T06:20:21;0.97;;;0.70;;
16965;SDS011;8599;47.852;12.070;2023-09-19T06:22:50;2.03;;;1.00;;
16965;SDS011;8599;47.852;12.070;2023-09-19T06:25:18;3.90;;;0.90;;
16965;SDS011;8599;47.852;12.070;2023-09-19T06:27:46;4.77;;;1.17;;
16965;SDS011;8599;47.852;12.070;2023-09-19T06:30:14;3.03;;;0.93;;
16965;SDS011;8599;47.852;12.070;2023-09-19T06:32:42;2.20;;;1.03;;
16965;SDS011;8599;47.852;12.070;2023-09-19T06:35:10;4.63;;;1.00;;
16965;SDS011;8599;47.852;12.070;2023-09-19T06:37:38;3.47;;;1.30;;
16965;SDS011;8599;47.852;12.070;2023-09-19T06:40:07;1.37;;;1.20;;
16965;SDS011;8599;47.852;12.070;2023-09-19T06:42:38;1.23;;;1.03;;
16965;SDS011;8599;47.852;12.070;2023-09-19T06:45:06;2.47;;;1.67;;
16965;SDS011;8599;47.852;12.070;2023-09-19T06:47:36;3.33;;;1.50;;
16965;SDS011;8599;47.852;12.070;2023-09-19T06:50:03;4.57;;;1.80;;
16965;SDS011;8599;47.852;12.070;2023-09-19T06:52:30;3.70;;;1.37;;
16965;SDS011;8599;47.852;12.070;2023-09-19T06:54:59;3.20;;;1.60;;
16965;SDS011;8599;47.852;12.070;2023-09-19T06:57:28;2.83;;;1.50;;
16965;SDS011;8599;47.852;12.070;2023-09-19T06:59:55;2.97;;;1.67;;
16965;SDS011;8599;47.852;12.070;2023-09-19T07:02:22;5.23;;;2.77;;
16965;SDS011;8599;47.852;12.070;2023-09-19T07:04:49;8.70;;;2.57;;
16965;SDS011;8599;47.852;12.070;2023-09-19T07:07:16;5.80;;;2.40;;
16965;SDS011;8599;47.852;12.070;2023-09-19T07:09:43;1.87;;;1.37;;
16965;SDS011;8599;47.852;12.070;2023-09-19T07:12:11;6.80;;;2.13;;
16965;SDS011;8599;47.852;12.070;2023-09-19T07:14:38;6.77;;;2.00;;
16965;SDS011;8599;47.852;12.070;2023-09-19T07:17:05;7.87;;;2.10;;
16965;SDS011;8599;47.852;12.070;2023-09-19T07:19:32;5.63;;;2.23;;
16965;SDS011;8599;47.852;12.070;2023-09-19T07:21:59;6.80;;;2.27;;
16965;SDS011;8599;47.852;12.070;2023-09-19T07:24:27;1.93;;;1.30;;
16965;SDS011;8599;47.852;12.070;2023-09-19T07:26:54;4.77;;;1.30;;
16965;SDS011;8599;47.852;12.070;2023-09-19T07:29:22;5.20;;;1.30;;
16965;SDS011;8599;47.852;12.070;2023-09-19T07:31:51;1.30;;;1.20;;
16965;SDS011;8599;47.852;12.070;2023-09-19T07:34:18;2.47;;;1.30;;
16965;SDS011;8599;47.852;12.070;2023-09-19T07:36:46;1.10;;;1.00;;
16965;SDS011;8599;47.852;12.070;2023-09-19T07:39:13;2.15;;;1.10;;
16965;SDS011;8599;47.852;12.070;2023-09-19T07:41:40;1.77;;;1.15;;
16965;SDS011;8599;47.852;12.070;2023-09-19T07:44:07;1.77;;;1.00;;
16965;SDS011;8599;47.852;12.070;2023-09-19T07:46:36;1.63;;;1.00;;
16965;SDS011;8599;47.852;12.070;2023-09-19T07:49:03;2.33;;;1.23;;
16965;SDS011;8599;47.852;12.070;2023-09-19T07:51:30;1.63;;;1.13;;
16965;SDS011;8599;47.852;12.070;2023-09-19T07:53:58;1.47;;;0.90;;
16965;SDS011;8599;47.852;12.070;2023-09-19T07:56:25;1.25;;;0.85;;
16965;SDS011;8599;47.852;12.070;2023-09-19T07:58:52;1.60;;;0.73;;
16965;SDS011;8599;47.852;12.070;2023-09-19T08:01:19;0.80;;;0.75;;
16965;SDS011;8599;47.852;12.070;2023-09-19T08:03:50;2.28;;;1.15;;
16965;SDS011;8599;47.852;12.070;2023-09-19T08:06:18;4.33;;;1.20;;
16965;SDS011;8599;47.852;12.070;2023-09-19T08:08:45;1.63;;;1.10;;
16965;SDS011;8599;47.852;12.070;2023-09-19T08:11:14;2.80;;;0.80;;
16965;SDS011;8599;47.852;12.070;2023-09-19T08:13:46;0.60;;;0.60;;
16965;SDS011;8599;47.852;12.070;2023-09-19T08:16:14;0.95;;;0.80;;
16965;SDS011;8599;47.852;12.070;2023-09-19T08:18:41;1.08;;;0.98;;
16965;SDS011;8599;47.852;12.070;2023-09-19T08:21:11;1.83;;;0.88;;
16965;SDS011;8599;47.852;12.070;2023-09-19T08:23:40;5.38;;;0.98;;
16965;SDS011;8599;47.852;12.070;2023-09-19T08:26:08;6.68;;;0.93;;
16965;SDS011;8599;47.852;12.070;2023-09-19T08:28:35;4.88;;;0.85;;
16965;SDS011;8599;47.852;12.070;2023-09-19T08:31:06;1.50;;;1.00;;
16965;SDS011;8599;47.852;12.070;2023-09-19T08:33:34;1.35;;;0.68;;
16965;SDS011;8599;47.852;12.070;2023-09-19T08:36:01;1.33;;;0.60;;
16965;SDS011;8599;47.852;12.070;2023-09-19T08:38:30;3.85;;;0.90;;
16965;SDS011;8599;47.852;12.070;2023-09-19T08:40:58;1.10;;;0.85;;
16965;SDS011;8599;47.852;12.070;2023-09-19T08:43:25;1.88;;;0.75;;
16965;SDS011;8599;47.852;12.070;2023-09-19T08:45:54;0.93;;;0.83;;
16965;SDS011;8599;47.852;12.070;2023-09-19T08:48:25;1.95;;;0.90;;
16965;SDS011;8599;47.852;12.070;2023-09-19T08:50:55;2.70;;;1.17;;
16965;SDS011;8599;47.852;12.070;2023-09-19T08:53:27;1.70;;;1.20;;
16965;SDS011;8599;47.852;12.070;2023-09-19T08:56:01;2.20;;;1.48;;
16965;SDS011;8599;47.852;12.070;2023-09-19T08:58:38;1.17;;;1.00;;
16965;SDS011;8599;47.852;12.070;2023-09-19T09:01:10;2.13;;;1.13;;
16965;SDS011;8599;47.852;12.070;2023-09-19T09:03:39;1.40;;;0.93;;
16965;SDS011;8599;47.852;12.070;2023-09-19T09:06:08;2.08;;;1.00;;
16965;SDS011;8599;47.852;12.070;2023-09-19T09:08:39;1.13;;;0.90;;
16965;SDS011;8599;47.852;12.070;2023-09-19T09:11:06;0.93;;;0.70;;
16965;SDS011;8599;47.852;12.070;2023-09-19T09:13:34;1.40;;;1.00;;
16965;SDS011;8599;47.852;12.070;2023-09-19T09:16:02;1.45;;;0.90;;
16965;SDS011;8599;47.852;12.070;2023-09-19T09:18:29;1.20;;;0.70;;
16965;SDS011;8599;47.852;12.070;2023-09-19T09:20:56;1.10;;;0.93;;
16965;SDS011;8599;47.852;12.070;2023-09-19T09:23:23;0.93;;;0.75;;
16965;SDS011;8599;47.852;12.070;2023-09-19T09:25:52;1.30;;;0.65;;
16965;SDS011;8599;47.852;12.070;2023-09-19T09:28:22;1.30;;;1.02;;
16965;SDS011;8599;47.852;12.070;2023-09-19T09:30:50;2.70;;;1.45;;
16965;SDS011;8599;47.852;12.070;2023-09-19T09:33:17;3.47;;;0.80;;
16965;SDS011;8599;47.852;12.070;2023-09-19T09:35:47;1.73;;;0.88;;
16965;SDS011;8599;47.852;12.070;2023-09-19T09:38:17;2.30;;;1.15;;
16965;SDS011;8599;47.852;12.070;2023-09-19T09:40:49;2.28;;;1.08;;
16965;SDS011;8599;47.852;12.070;2023-09-19T09:43:26;3.92;;;0.85;;
16965;SDS011;8599;47.852;12.070;2023-09-19T09:46:06;0.85;;;0.75;;
16965;SDS011;8599;47.852;12.070;2023-09-19T09:48:58;0.98;;;0.88;;
16965;SDS011;8599;47.852;12.070;2023-09-19T09:51:58;1.50;;;0.70;;
16965;SDS011;8599;47.852;12.070;2023-09-19T09:54:30;1.55;;;0.63;;
16965;SDS011;8599;47.852;12.070;2023-09-19T09:57:02;1.40;;;0.73;;
16965;SDS011;8599;47.852;12.070;2023-09-19T09:59:46;0.75;;;0.75;;
16965;SDS011;8599;47.852;12.070;2023-09-19T10:02:16;1.73;;;0.80;;
16965;SDS011;8599;47.852;12.070;2023-09-19T10:04:49;1.58;;;0.65;;
16965;SDS011;8599;47.852;12.070;2023-09-19T10:07:35;2.15;;;0.98;;
16965;SDS011;8599;47.852;12.070;2023-09-19T10:10:03;0.88;;;0.70;;
16965;SDS011;8599;47.852;12.070;2023-09-19T10:12:38;0.85;;;0.60;;
16965;SDS011;8599;47.852;12.070;2023-09-19T10:15:12;0.50;;;0.50;;
16965;SDS011;8599;47.852;12.070;2023-09-19T10:17:41;0.55;;;0.55;;
16965;SDS011;8599;47.852;12.070;2023-09-19T10:20:12;0.60;;;0.60;;
16965;SDS011;8599;47.852;12.070;2023-09-19T10:22:57;1.73;;;0.60;;
16965;SDS011;8599;47.852;12.070;2023-09-19T10:25:26;1.35;;;0.80;;
16965;SDS011;8599;47.852;12.070;2023-09-19T10:27:55;1.35;;;0.80;;
16965;SDS011;8599;47.852;12.070;2023-09-19T10:30:26;1.17;;;0.65;;
16965;SDS011;8599;47.852;12.070;2023-09-19T10:32:57;1.70;;;0.70;;
16965;SDS011;8599;47.852;12.070;2023-09-19T10:35:27;0.50;;;0.50;;
16965;SDS011;8599;47.852;12.070;2023-09-19T10:37:57;0.60;;;0.60;;
16965;SDS011;8599;47.852;12.070;2023-09-19T10:40:26;0.68;;;0.60;;
16965;SDS011;8599;47.852;12.070;2023-09-19T10:43:00;0.60;;;0.60;;
16965;SDS011;8599;47.852;12.070;2023-09-19T10:45:33;1.05;;;0.80;;
16965;SDS011;8599;47.852;12.070;2023-09-19T10:48:03;0.65;;;0.60;;
16965;SDS011;8599;47.852;12.070;2023-09-19T10:50:33;1.25;;;0.65;;
16965;SDS011;8599;47.852;12.070;2023-09-19T10:53:03;1.88;;;0.70;;
16965;SDS011;8599;47.852;12.070;2023-09-19T10:55:33;3.20;;;0.60;;
16965;SDS011;8599;47.852;12.070;2023-09-19T10:58:01;0.77;;;0.77;;
16965;SDS011;8599;47.852;12.070;2023-09-19T11:00:54;0.55;;;0.55;;
16965;SDS011;8599;47.852;12.070;2023-09-19T11:03:26;2.13;;;1.10;;
16965;SDS011;8599;47.852;12.070;2023-09-19T11:06:02;1.20;;;0.80;;
16965;SDS011;8599;47.852;12.070;2023-09-19T11:11:39;3.30;;;0.60;;
16965;SDS011;8599;47.852;12.070;2023-09-19T11:17:30;0.73;;;0.63;;
16965;SDS011;8599;47.852;12.070;2023-09-19T11:25:49;0.82;;;0.80;;
16965;SDS011;8599;47.852;12.070;2023-09-19T11:28:28;0.82;;;0.65;;
16965;SDS011;8599;47.852;12.070;2023-09-19T11:40:27;0.98;;;0.80;;
16965;SDS011;8599;47.852;12.070;2023-09-19T11:42:55;1.90;;;0.77;;
16965;SDS011;8599;47.852;12.070;2023-09-19T11:48:26;0.70;;;0.70;;
16965;SDS011;8599;47.852;12.070;2023-09-19T11:50:55;1.08;;;0.80;;
16965;SDS011;8599;47.852;12.070;2023-09-19T11:53:24;1.75;;;0.77;;
16965;SDS011;8599;47.852;12.070;2023-09-19T11:56:01;0.82;;;0.70;;
16965;SDS011;8599;47.852;12.070;2023-09-19T11:58:32;1.67;;;0.80;;
16965;SDS011;8599;47.852;12.070;2023-09-19T12:00:59;0.70;;;0.70;;
16965;SDS011;8599;47.852;12.070;2023-09-19T12:03:33;2.28;;;1.17;;
16965;SDS011;8599;47.852;12.070;2023-09-19T12:06:11;1.17;;;0.80;;
16965;SDS011;8599;47.852;12.070;2023-09-19T12:08:39;2.00;;;0.68;;
16965;SDS011;8599;47.852;12.070;2023-09-19T12:11:11;3.35;;;0.75;;
16965;SDS011;8599;47.852;12.070;2023-09-19T12:13:41;1.55;;;1.10;;
16965;SDS011;8599;47.852;12.070;2023-09-19T12:16:11;0.70;;;0.70;;
16965;SDS011;8599;47.852;12.070;2023-09-19T12:18:40;1.95;;;0.88;;
16965;SDS011;8599;47.852;12.070;2023-09-19T12:21:08;2.38;;;1.08;;
16965;SDS011;8599;47.852;12.070;2023-09-19T12:23:57;1.30;;;0.82;;
16965;SDS011;8599;47.852;12.070;2023-09-19T12:26:26;1.98;;;0.90;;
16965;SDS011;8599;47.852;12.070;2023-09-19T12:28:54;1.52;;;0.80;;
16965;SDS011;8599;47.852;12.070;2023-09-19T12:31:22;0.98;;;0.75;;
16965;SDS011;8599;47.852;12.070;2023-09-19T12:33:53;0.98;;;0.65;;
16965;SDS011;8599;47.852;12.070;2023-09-19T12:36:20;2.45;;;0.95;;
16965;SDS011;8599;47.852;12.070;2023-09-19T12:38:50;4.88;;;1.08;;
16965;SDS011;8599;47.852;12.070;2023-09-19T12:41:19;3.60;;;0.80;;
16965;SDS011;8599;47.852;12.070;2023-09-19T12:43:47;1.45;;;1.05;;
16965;SDS011;8599;47.852;12.070;2023-09-19T12:46:14;2.95;;;1.08;;
16965;SDS011;8599;47.852;12.070;2023-09-19T12:48:44;1.58;;;1.20;;
16965;SDS011;8599;47.852;12.070;2023-09-19T12:51:13;3.40;;;1.00;;
16965;SDS011;8599;47.852;12.070;2023-09-19T12:53:42;2.35;;;0.80;;
16965;SDS011;8599;47.852;12.070;2023-09-19T12:56:11;4.45;;;0.80;;
16965;SDS011;8599;47.852;12.070;2023-09-19T12:58:51;0.80;;;0.70;;
16965;SDS011;8599;47.852;12.070;2023-09-19T13:01:20;0.70;;;0.70;;
16965;SDS011;8599;47.852;12.070;2023-09-19T13:06:40;2.15;;;0.82;;
16965;SDS011;8599;47.852;12.070;2023-09-19T13:09:09;1.23;;;0.90;;
16965;SDS011;8599;47.852;12.070;2023-09-19T13:11:37;1.45;;;0.80;;
16965;SDS011;8599;47.852;12.070;2023-09-19T13:14:20;1.45;;;0.90;;
16965;SDS011;8599;47.852;12.070;2023-09-19T13:17:01;4.15;;;0.80;;
16965;SDS011;8599;47.852;12.070;2023-09-19T13:19:36;5.55;;;0.88;;
16965;SDS011;8599;47.852;12.070;2023-09-19T13:22:04;0.70;;;0.65;;
16965;SDS011;8599;47.852;12.070;2023-09-19T13:24:33;0.98;;;0.85;;
16965;SDS011;8599;47.852;12.070;2023-09-19T13:27:05;1.67;;;0.85;;
16965;SDS011;8599;47.852;12.070;2023-09-19T13:29:33;0.90;;;0.73;;
16965;SDS011;8599;47.852;12.070;2023-09-19T13:32:00;3.25;;;1.08;;
16965;SDS011;8599;47.852;12.070;2023-09-19T13:34:29;0.85;;;0.80;;
16965;SDS011;8599;47.852;12.070;2023-09-19T13:36:56;2.25;;;0.80;;
16965;SDS011;8599;47.852;12.070;2023-09-19T13:39:24;1.00;;;0.70;;
16965;SDS011;8599;47.852;12.070;2023-09-19T13:41:51;0.60;;;0.52;;
16965;SDS011;8599;47.852;12.070;2023-09-19T13:44:18;1.33;;;0.77;;
16965;SDS011;8599;47.852;12.070;2023-09-19T13:46:46;1.17;;;0.68;;
16965;SDS011;8599;47.852;12.070;2023-09-19T13:49:12;1.42;;;1.00;;
16965;SDS011;8599;47.852;12.070;2023-09-19T13:51:39;1.20;;;0.63;;
16965;SDS011;8599;47.852;12.070;2023-09-19T13:54:08;0.50;;;0.50;;
16965;SDS011;8599;47.852;12.070;2023-09-19T13:56:36;0.88;;;0.73;;
16965;SDS011;8599;47.852;12.070;2023-09-19T13:59:03;1.90;;;0.70;;
16965;SDS011;8599;47.852;12.070;2023-09-19T14:01:30;1.23;;;0.70;;
16965;SDS011;8599;47.852;12.070;2023-09-19T14:03:58;1.60;;;0.70;;
16965;SDS011;8599;47.852;12.070;2023-09-19T14:06:25;1.27;;;0.70;;
16965;SDS011;8599;47.852;12.070;2023-09-19T14:08:52;2.53;;;0.60;;
16965;SDS011;8599;47.852;12.070;2023-09-19T14:11:19;1.00;;;0.50;;
16965;SDS011;8599;47.852;12.070;2023-09-19T14:13:45;1.90;;;0.55;;
16965;SDS011;8599;47.852;12.070;2023-09-19T14:16:14;1.67;;;0.60;;
16965;SDS011;8599;47.852;12.070;2023-09-19T14:18:42;3.50;;;0.85;;
16965;SDS011;8599;47.852;12.070;2023-09-19T14:21:12;1.33;;;0.70;;
16965;SDS011;8599;47.852;12.070;2023-09-19T14:23:39;2.65;;;0.73;;
16965;SDS011;8599;47.852;12.070;2023-09-19T14:26:08;1.65;;;1.05;;
16965;SDS011;8599;47.852;12.070;2023-09-19T14:28:35;0.77;;;0.57;;
16965;SDS011;8599;47.852;12.070;2023-09-19T14:31:04;2.72;;;0.70;;
16965;SDS011;8599;47.852;12.070;2023-09-19T14:33:32;0.82;;;0.60;;
16965;SDS011;8599;47.852;12.070;2023-09-19T14:36:01;0.90;;;0.90;;
16965;SDS011;8599;47.852;12.070;2023-09-19T14:38:32;2.03;;;0.70;;
16965;SDS011;8599;47.852;12.070;2023-09-19T14:41:00;2.65;;;0.70;;
16965;SDS011;8599;47.852;12.070;2023-09-19T14:43:27;1.58;;;1.02;;
16965;SDS011;8599;47.852;12.070;2023-09-19T14:45:55;2.72;;;0.73;;
16965;SDS011;8599;47.852;12.070;2023-09-19T14:48:22;1.00;;;0.80;;
16965;SDS011;8599;47.852;12.070;2023-09-19T14:50:50;1.00;;;0.90;;
16965;SDS011;8599;47.852;12.070;2023-09-19T14:53:17;2.15;;;0.70;;
16965;SDS011;8599;47.852;12.070;2023-09-19T14:55:45;3.53;;;0.95;;
16965;SDS011;8599;47.852;12.070;2023-09-19T14:58:16;3.63;;;0.80;;
16965;SDS011;8599;47.852;12.070;2023-09-19T15:00:44;1.13;;;0.95;;
16965;SDS011;8599;47.852;12.070;2023-09-19T15:03:11;0.70;;;0.68;;
16965;SDS011;8599;47.852;12.070;2023-09-19T15:05:38;1.20;;;0.80;;
16965;SDS011;8599;47.852;12.070;2023-09-19T15:08:05;1.48;;;0.70;;
16965;SDS011;8599;47.852;12.070;2023-09-19T15:10:32;0.68;;;0.60;;
16965;SDS011;8599;47.852;12.070;2023-09-19T15:13:00;0.75;;;0.65;;
16965;SDS011;8599;47.852;12.070;2023-09-19T15:15:27;0.52;;;0.50;;
16965;SDS011;8599;47.852;12.070;2023-09-19T15:17:53;0.90;;;0.70;;
16965;SDS011;8599;47.852;12.070;2023-09-19T15:20:20;1.38;;;0.95;;
16965;SDS011;8599;47.852;12.070;2023-09-19T15:22:47;1.45;;;0.95;;
16965;SDS011;8599;47.852;12.070;2023-09-19T15:25:14;0.60;;;0.55;;
16965;SDS011;8599;47.852;12.070;2023-09-19T15:27:41;1.30;;;0.80;;
16965;SDS011;8599;47.852;12.070;2023-09-19T15:30:11;0.90;;;0.63;;